ケアンズ の空港の天気 - METARとTAF

ケアンズ国際空港 ( YBCS / CNS ) - オーストラリア クイーンズランド州ケアンズ
飛行場実況気象(Metar)
観測時間08/26 05:00 AEST (08/25 19:00 UTC)
風向・風速南南東 4m/s
視程10km以上
天気現象
全天の8割程度の雲 雲底高度 1100m
気温17℃
湿度83%
気圧1016hPa
METARYBCS 251900Z AUTO 15007KT 9999 // BKN036 17/14 Q1016 RF00.0/000.0 FM1930 17007KT 9999 SCT025
過去の天気等 Google飛行場航空写真 Wunderground天気予報

過去48時間のMETAR

飛行場予報(TAF)
発表時間: 8/26 03:09 AEST (8/25 17:09 UTC)
予報対象時間: 26日4時 AEST ~ 27日4時 AEST
風向・風速南 4m/s
視程10km以上
全天の4割程度の雲 雲底高度 760m
26日11時 AEST から
風向・風速南東 7m/s
視程10km以上
少しの雲 雲底高度 1070m
26日18時 AEST から
風向・風速南 4m/s
視程10km以上
全天の4割程度の雲 雲底高度 760m
TAF YBCS 251709Z 2518/2618 17007KT 9999 SCT025
FM260100 13014KT 9999 FEW035
FM260800 17007KT 9999 SCT025